createdAt,value
2022-12-09T00:04:30.020Z,11.73
2022-12-09T00:09:23.719Z,10.97
2022-12-09T00:14:17.272Z,11.80
2022-12-09T00:19:13.874Z,11.57
2022-12-09T00:24:14.219Z,11.90
2022-12-09T00:29:08.099Z,11.63
2022-12-09T00:34:04.021Z,11.10
2022-12-09T00:38:59.454Z,12.10
2022-12-09T00:43:54.879Z,11.70
2022-12-09T00:48:48.903Z,11.37
2022-12-09T00:53:43.103Z,10.83
2022-12-09T00:58:36.830Z,10.80
2022-12-09T01:03:32.016Z,10.53
2022-12-09T01:08:26.123Z,10.93
2022-12-09T01:13:40.720Z,10.90
2022-12-09T01:18:45.239Z,11.03
2022-12-09T01:23:38.911Z,11.63
2022-12-09T01:28:33.034Z,11.13
2022-12-09T01:33:26.785Z,11.53
2022-12-09T01:38:22.008Z,11.00
2022-12-09T01:43:19.324Z,11.20
2022-12-09T01:48:15.905Z,11.07
2022-12-09T01:53:09.949Z,11.67
2022-12-09T01:58:06.496Z,10.97
2022-12-09T02:03:08.659Z,11.60
2022-12-09T02:08:02.764Z,12.30
2022-12-09T02:13:11.121Z,12.20
2022-12-09T02:18:15.048Z,11.93
2022-12-09T02:23:19.943Z,11.93
2022-12-09T02:28:43.581Z,12.43
2022-12-09T02:33:47.468Z,12.70
2022-12-09T02:38:44.418Z,12.67
2022-12-09T02:43:49.852Z,14.13
2022-12-09T02:48:50.780Z,13.57
2022-12-09T02:53:52.253Z,13.23
2022-12-09T02:58:45.758Z,14.27
2022-12-09T03:03:39.385Z,13.60
2022-12-09T03:08:46.096Z,14.43
2022-12-09T03:13:57.138Z,13.80
2022-12-09T03:19:00.733Z,14.83
2022-12-09T03:23:58.058Z,14.60
2022-12-09T03:28:56.651Z,15.17
2022-12-09T03:33:54.929Z,15.67
2022-12-09T03:38:50.341Z,16.20
2022-12-09T03:43:53.105Z,15.37
2022-12-09T03:48:48.361Z,15.57
2022-12-09T03:53:50.393Z,16.70
2022-12-09T03:58:47.577Z,16.50
2022-12-09T04:03:59.854Z,16.70
2022-12-09T04:08:57.992Z,17.53
2022-12-09T04:13:54.149Z,17.03
2022-12-09T04:18:47.706Z,16.83
2022-12-09T04:23:43.581Z,16.90
2022-12-09T04:28:37.122Z,17.17
2022-12-09T04:33:32.508Z,16.57
2022-12-09T04:38:25.999Z,17.47
2022-12-09T04:43:21.094Z,16.77
2022-12-09T04:48:14.603Z,17.93
2022-12-09T04:53:55.915Z,18.93
2022-12-09T04:58:51.961Z,18.17
2022-12-09T05:03:51.011Z,19.53
2022-12-09T05:08:45.353Z,19.30
2022-12-09T05:13:39.113Z,18.80
2022-12-09T05:18:53.403Z,20.30
2022-12-09T05:23:48.546Z,19.13
2022-12-09T05:28:42.333Z,19.20
2022-12-09T05:33:56.472Z,20.33
2022-12-09T05:38:53.496Z,20.07
2022-12-09T05:43:47.751Z,20.87
2022-12-09T05:48:41.701Z,20.73
2022-12-09T05:53:55.762Z,20.47
2022-12-09T05:58:51.585Z,20.40
2022-12-09T06:03:47.444Z,19.17
2022-12-09T06:08:43.675Z,19.60
2022-12-09T06:13:37.257Z,21.17
2022-12-09T06:18:32.342Z,19.33
2022-12-09T06:23:26.937Z,19.30
2022-12-09T06:28:20.413Z,18.90
2022-12-09T06:33:45.040Z,19.27
2022-12-09T06:38:29.019Z,19.60
2022-12-09T06:43:23.036Z,20.60
2022-12-09T06:48:16.671Z,20.00
2022-12-09T06:53:10.344Z,20.47
2022-12-09T06:58:05.462Z,20.37
2022-12-09T07:02:59.378Z,20.93
2022-12-09T07:07:52.535Z,19.80
2022-12-09T07:12:47.027Z,21.07
2022-12-09T07:17:42.208Z,21.37
2022-12-09T07:22:36.386Z,21.50
2022-12-09T07:32:36.707Z,19.70
2022-12-09T07:37:32.351Z,22.10
2022-12-09T07:42:25.772Z,20.70
2022-12-09T07:47:19.707Z,20.70
2022-12-09T07:52:13.987Z,22.80
2022-12-09T07:57:08.878Z,21.93
2022-12-09T08:02:06.535Z,21.43
2022-12-09T08:07:00.661Z,21.63
2022-12-09T08:11:54.260Z,21.17
2022-12-09T08:17:24.545Z,22.00
2022-12-09T08:22:17.979Z,21.50
2022-12-09T08:27:11.336Z,21.67
2022-12-09T08:32:07.047Z,21.60
2022-12-09T08:37:03.833Z,21.17
2022-12-09T08:41:57.645Z,20.90
2022-12-09T09:14:58.592Z,21.73
2022-12-09T09:19:54.233Z,21.53
2022-12-09T09:24:56.222Z,22.13
2022-12-09T09:29:50.235Z,21.43
2022-12-09T09:34:45.932Z,21.60
2022-12-09T09:39:42.606Z,20.50
2022-12-09T09:44:41.174Z,21.33
2022-12-09T09:49:43.175Z,21.40
2022-12-09T09:54:37.911Z,20.63
2022-12-09T09:59:49.913Z,21.67
2022-12-09T10:05:04.643Z,19.87
2022-12-09T10:10:12.522Z,21.13
2022-12-09T10:15:14.365Z,20.83
2022-12-09T10:20:14.557Z,21.90
2022-12-09T10:25:22.059Z,22.00
2022-12-09T10:30:20.754Z,22.67
2022-12-09T10:35:18.671Z,21.40
2022-12-09T10:40:27.143Z,21.30
2022-12-09T10:45:23.895Z,22.60
2022-12-09T10:50:31.680Z,22.07
2022-12-09T10:55:32.962Z,22.17
2022-12-09T11:00:34.455Z,22.53
2022-12-09T11:20:59.419Z,21.73
2022-12-09T11:25:57.718Z,22.50
2022-12-09T12:02:27.063Z,23.60
2022-12-09T12:07:33.489Z,24.83
2022-12-09T12:12:42.647Z,23.23
2022-12-09T12:17:44.092Z,22.97
2022-12-09T12:23:02.902Z,24.00
2022-12-09T12:28:32.534Z,23.17
2022-12-09T12:34:08.216Z,21.30
2022-12-09T12:39:14.760Z,23.97
2022-12-09T13:30:16.964Z,23.60
2022-12-09T13:35:18.922Z,24.43
2022-12-09T13:45:33.038Z,24.23
2022-12-09T13:50:57.157Z,25.13
2022-12-09T13:56:02.964Z,23.03
2022-12-09T14:01:10.422Z,23.13
2022-12-09T14:06:22.900Z,24.03
2022-12-09T14:11:48.175Z,25.00
2022-12-09T14:16:43.825Z,24.23
2022-12-09T14:21:37.261Z,24.47
2022-12-09T14:26:38.749Z,25.57
2022-12-09T14:32:01.332Z,25.77
2022-12-09T14:37:12.460Z,23.80
2022-12-09T14:42:12.572Z,24.70
2022-12-09T14:47:22.242Z,24.27
2022-12-09T14:52:23.349Z,24.73
2022-12-09T14:57:25.782Z,23.97
2022-12-09T15:02:25.031Z,24.33
2022-12-09T15:07:21.505Z,23.47
2022-12-09T15:12:15.000Z,23.90
2022-12-09T15:17:09.695Z,23.40
2022-12-09T15:22:04.610Z,21.70
2022-12-09T15:27:01.595Z,21.27
2022-12-09T15:31:55.273Z,23.40
2022-12-09T15:36:54.525Z,22.00
2022-12-09T15:42:10.456Z,23.47
2022-12-09T15:47:10.456Z,21.50
2022-12-09T15:52:08.505Z,21.67
2022-12-09T15:57:07.246Z,21.87
2022-12-09T16:02:02.196Z,21.10
2022-12-09T16:06:57.020Z,22.57
2022-12-09T16:11:54.101Z,21.50
2022-12-09T16:16:51.863Z,21.73
2022-12-09T16:21:45.231Z,21.67
2022-12-09T16:26:41.262Z,20.03
2022-12-09T16:45:25.515Z,21.63
2022-12-09T16:50:19.157Z,21.47
2022-12-09T16:55:22.186Z,20.73
2022-12-09T17:01:15.983Z,21.00
2022-12-09T17:06:16.409Z,20.63
2022-12-09T17:11:09.972Z,21.43
2022-12-09T17:16:03.733Z,20.70
2022-12-09T17:21:02.672Z,22.57
2022-12-09T17:26:02.539Z,22.03
2022-12-09T17:30:56.008Z,20.17
2022-12-09T17:35:49.424Z,21.13
2022-12-09T17:45:51.528Z,20.33
2022-12-09T17:50:45.589Z,26.20
2022-12-09T17:55:39.818Z,22.67
2022-12-09T18:00:33.789Z,21.60
2022-12-09T18:15:42.310Z,20.77
2022-12-09T18:20:38.558Z,20.10
2022-12-09T18:25:32.136Z,23.07
2022-12-09T18:30:25.581Z,22.63
2022-12-09T18:35:20.613Z,22.83
2022-12-09T18:40:21.148Z,21.80
2022-12-09T18:45:15.154Z,19.30
2022-12-09T18:50:10.121Z,21.43
2022-12-09T18:55:06.830Z,20.50
2022-12-09T19:00:00.276Z,21.57
2022-12-09T19:04:53.642Z,18.93
2022-12-09T19:09:47.080Z,19.50
2022-12-09T19:14:41.778Z,19.47
2022-12-09T19:19:35.300Z,19.20
2022-12-09T19:24:32.748Z,19.67
2022-12-09T19:29:28.130Z,19.50
2022-12-09T19:34:25.544Z,19.00
2022-12-09T19:39:23.490Z,19.60
2022-12-09T19:44:37.333Z,18.80
2022-12-09T19:49:34.657Z,21.03
2022-12-09T19:54:29.785Z,18.40
2022-12-09T19:59:23.204Z,18.67
2022-12-09T20:04:47.527Z,18.27
2022-12-09T20:09:35.375Z,19.40
2022-12-09T20:14:28.702Z,19.27
2022-12-09T20:19:22.072Z,19.50
2022-12-09T20:24:15.396Z,19.43
2022-12-09T20:29:12.493Z,20.73
2022-12-09T20:34:09.512Z,20.60
2022-12-09T20:39:06.111Z,26.73
2022-12-09T20:44:01.455Z,25.03
2022-12-09T20:48:56.920Z,21.83
2022-12-09T20:53:51.558Z,20.40
2022-12-09T20:58:46.725Z,21.83
2022-12-09T21:03:40.585Z,20.70
2022-12-09T21:08:35.807Z,18.23
2022-12-09T21:13:29.229Z,18.20
2022-12-09T21:18:22.563Z,19.40
2022-12-09T21:23:33.476Z,17.70
2022-12-09T21:28:30.095Z,17.10
2022-12-09T21:33:23.737Z,18.03
2022-12-09T21:38:17.019Z,17.07
2022-12-09T21:43:10.372Z,17.43
2022-12-09T21:48:05.360Z,18.23
2022-12-09T21:52:58.846Z,17.20
2022-12-09T21:57:52.221Z,16.30
2022-12-09T22:02:47.310Z,15.93
2022-12-09T22:07:42.510Z,15.57
2022-12-09T22:12:37.031Z,16.13
2022-12-09T22:17:30.593Z,16.17
2022-12-09T22:23:14.514Z,16.30
2022-12-09T22:28:08.083Z,15.37
2022-12-09T22:33:01.643Z,16.40
2022-12-09T22:37:58.048Z,16.53
2022-12-09T22:42:53.885Z,17.10
2022-12-09T22:47:47.236Z,16.70
2022-12-09T22:52:40.639Z,16.00
2022-12-09T22:57:34.023Z,15.33
2022-12-09T23:02:29.126Z,15.40
2022-12-09T23:07:22.574Z,15.60
2022-12-09T23:12:15.835Z,15.00
2022-12-09T23:17:09.189Z,15.63
2022-12-09T23:22:04.255Z,15.83
2022-12-09T23:26:57.849Z,16.37
2022-12-09T23:31:51.294Z,14.47
2022-12-09T23:36:46.349Z,15.07
2022-12-09T23:41:43.277Z,15.10
2022-12-09T23:46:37.116Z,15.63
2022-12-09T23:51:33.060Z,15.73
2022-12-09T23:56:28.860Z,15.67
